createdAt,value
2022-12-25T00:02:16.819Z,101548.47
2022-12-25T00:04:47.083Z,101554.53
2022-12-25T00:07:17.189Z,101550.00
2022-12-25T00:09:47.406Z,101562.25
2022-12-25T00:12:18.371Z,101561.31
2022-12-25T00:14:48.665Z,101557.97
2022-12-25T00:17:18.847Z,101556.00
2022-12-25T00:19:48.995Z,101554.34
2022-12-25T00:22:19.379Z,101559.53
2022-12-25T00:24:50.064Z,101558.59
2022-12-25T00:27:20.256Z,101568.09
2022-12-25T00:29:50.369Z,101575.00
2022-12-25T00:32:20.620Z,101572.44
2022-12-25T00:34:50.794Z,101572.44
2022-12-25T00:37:20.920Z,101581.91
2022-12-25T00:39:50.985Z,101577.66
2022-12-25T00:42:21.277Z,101580.16
2022-12-25T00:44:51.554Z,101554.19
2022-12-25T00:47:21.797Z,101595.69
2022-12-25T00:49:52.117Z,101589.56
2022-12-25T00:52:22.289Z,101596.50
2022-12-25T00:54:52.517Z,101611.97
2022-12-25T00:57:22.650Z,101606.91
2022-12-25T00:59:52.801Z,101603.38
2022-12-25T01:02:26.259Z,101608.59
2022-12-25T01:04:57.544Z,101618.94
2022-12-25T01:07:28.124Z,101610.31
2022-12-25T01:10:17.045Z,101597.69
2022-12-25T01:12:47.179Z,101630.84
2022-12-25T01:15:18.048Z,101631.81
2022-12-25T01:17:48.262Z,101615.25
2022-12-25T01:20:19.451Z,101630.97
2022-12-25T01:22:49.591Z,101629.16
2022-12-25T01:25:20.161Z,101619.63
2022-12-25T01:27:50.328Z,101636.94
2022-12-25T01:30:20.409Z,101636.94
2022-12-25T01:32:50.626Z,101628.41
2022-12-25T01:35:20.880Z,101627.59
2022-12-25T01:37:52.142Z,101629.41
2022-12-25T01:40:22.450Z,101619.91
2022-12-25T01:42:52.579Z,101626.84
2022-12-25T01:45:40.702Z,101620.88
2022-12-25T01:48:19.673Z,101613.09
2022-12-25T01:50:59.071Z,101611.28
2022-12-25T01:53:29.541Z,101612.97
2022-12-25T01:56:04.643Z,101617.19
2022-12-25T01:58:35.795Z,101608.53
2022-12-25T02:01:05.973Z,101613.66
2022-12-25T02:03:36.282Z,101617.94
2022-12-25T02:06:07.695Z,101622.19
2022-12-25T02:08:38.146Z,101617.75
2022-12-25T02:11:29.353Z,101623.81
2022-12-25T02:13:59.484Z,101626.28
2022-12-25T02:16:35.693Z,101633.91
2022-12-25T02:19:57.759Z,101637.47
2022-12-25T02:23:05.381Z,101640.03
2022-12-25T02:25:35.736Z,101648.66
2022-12-25T02:28:45.963Z,101656.28
2022-12-25T02:31:38.186Z,101665.72
2022-12-25T02:34:32.158Z,101665.69
2022-12-25T02:37:10.553Z,101659.66
2022-12-25T02:39:59.810Z,101658.75
2022-12-25T02:43:15.184Z,101654.66
2022-12-25T02:46:10.841Z,101657.22
2022-12-25T02:49:06.476Z,101645.31
2022-12-25T02:51:58.614Z,101660.72
2022-12-25T02:54:55.417Z,101681.28
2022-12-25T02:57:50.773Z,101670.19
2022-12-25T03:00:56.648Z,101667.41
2022-12-25T03:03:50.097Z,101663.16
2022-12-25T03:06:40.740Z,101651.13
2022-12-25T03:09:42.023Z,101660.53
2022-12-25T03:12:43.528Z,101653.69
2022-12-25T03:15:34.985Z,101644.06
2022-12-25T03:18:10.170Z,101626.59
2022-12-25T03:20:58.849Z,101636.34
2022-12-25T03:23:52.535Z,101641.50
2022-12-25T03:26:41.501Z,101654.19
2022-12-25T03:29:32.201Z,101643.78
2022-12-25T03:32:16.942Z,101648.06
2022-12-25T03:35:24.445Z,101651.63
2022-12-25T03:38:51.791Z,101660.25
2022-12-25T03:42:07.605Z,101651.69
2022-12-25T03:45:02.260Z,101650.06
2022-12-25T03:48:01.069Z,101659.50
2022-12-25T03:50:57.905Z,101659.47
2022-12-25T03:54:09.272Z,101665.47
2022-12-25T03:56:58.635Z,101667.19
2022-12-25T03:59:47.741Z,101676.63
2022-12-25T04:02:36.585Z,101674.88
2022-12-25T04:05:26.057Z,101676.56
2022-12-25T04:08:14.478Z,101671.50
2022-12-25T04:11:03.200Z,101669.75
2022-12-25T04:14:11.720Z,101680.06
2022-12-25T04:17:00.329Z,101680.06
2022-12-25T04:19:49.162Z,101683.38
2022-12-25T04:22:38.156Z,101687.72
2022-12-25T04:25:46.743Z,101682.50
2022-12-25T04:28:35.118Z,101689.53
2022-12-25T04:31:23.893Z,101691.38
2022-12-25T04:34:12.794Z,101685.41
2022-12-25T04:36:42.944Z,101690.53
2022-12-25T04:39:13.257Z,101688.84
2022-12-25T04:41:43.406Z,101696.63
2022-12-25T04:44:13.719Z,101694.06
2022-12-25T04:46:44.007Z,101696.63
2022-12-25T04:49:14.201Z,101680.13
2022-12-25T04:51:44.391Z,101696.75
2022-12-25T04:54:14.656Z,101690.81
2022-12-25T04:56:45.991Z,101695.28
2022-12-25T04:59:16.380Z,101696.16
2022-12-25T05:01:46.665Z,101702.97
2022-12-25T05:04:16.780Z,101707.09
2022-12-25T05:06:46.997Z,101707.09
2022-12-25T05:09:17.124Z,101700.97
2022-12-25T05:11:47.281Z,101709.53
2022-12-25T05:14:17.430Z,101707.78
2022-12-25T05:16:47.757Z,101712.16
2022-12-25T05:19:17.927Z,101707.94
2022-12-25T05:21:48.006Z,101709.66
2022-12-25T05:24:18.152Z,101713.94
2022-12-25T05:26:48.256Z,101709.75
2022-12-25T05:29:18.406Z,101717.56
2022-12-25T05:31:48.636Z,101714.97
2022-12-25T05:34:18.889Z,101706.44
2022-12-25T05:36:49.047Z,101709.00
2022-12-25T05:39:19.415Z,101707.28
2022-12-25T05:41:49.497Z,101720.22
2022-12-25T05:44:19.647Z,101716.63
2022-12-25T05:46:49.776Z,101726.97
2022-12-25T05:49:20.150Z,101727.66
2022-12-25T05:51:50.369Z,101729.22
2022-12-25T05:54:20.980Z,101724.22
2022-12-25T05:56:51.119Z,101722.59
2022-12-25T05:59:21.259Z,101726.84
2022-12-25T06:01:51.482Z,101735.44
2022-12-25T06:04:21.765Z,101742.41
2022-12-25T06:06:51.962Z,101737.81
2022-12-25T06:09:22.067Z,101739.31
2022-12-25T06:11:52.240Z,101736.53
2022-12-25T06:14:22.465Z,101732.25
2022-12-25T06:16:53.510Z,101742.66
2022-12-25T06:19:24.124Z,101748.75
2022-12-25T06:21:55.034Z,101756.47
2022-12-25T06:24:25.293Z,101763.28
2022-12-25T06:26:55.488Z,101756.47
2022-12-25T06:29:25.745Z,101759.69
2022-12-25T06:31:57.536Z,101770.78
2022-12-25T06:34:27.999Z,101766.41
2022-12-25T06:36:58.213Z,101776.72
2022-12-25T06:39:28.418Z,101772.00
2022-12-25T06:41:58.555Z,101783.44
2022-12-25T06:44:28.736Z,101775.84
2022-12-25T06:46:58.842Z,101777.63
2022-12-25T06:49:29.058Z,101781.06
2022-12-25T06:51:59.169Z,101790.72
2022-12-25T06:54:29.401Z,101788.91
2022-12-25T06:56:59.537Z,101785.34
2022-12-25T06:59:30.100Z,101784.38
2022-12-25T07:02:00.332Z,101798.88
2022-12-25T07:04:42.082Z,101802.41
2022-12-25T07:07:12.545Z,101805.81
2022-12-25T07:09:42.863Z,101799.72
2022-12-25T07:12:21.771Z,101808.50
2022-12-25T07:14:54.797Z,101812.03
2022-12-25T07:17:25.151Z,101813.63
2022-12-25T07:19:56.772Z,101817.06
2022-12-25T07:22:29.257Z,101826.66
2022-12-25T07:24:59.513Z,101830.97
2022-12-25T07:27:29.763Z,101839.53
2022-12-25T07:29:59.894Z,101845.53
2022-12-25T07:32:33.346Z,101845.41
2022-12-25T07:35:03.639Z,101848.72
2022-12-25T07:37:33.754Z,101845.22
2022-12-25T07:40:04.181Z,101850.47
2022-12-25T07:42:34.413Z,101852.34
2022-12-25T07:45:05.304Z,101856.66
2022-12-25T07:47:35.449Z,101846.38
2022-12-25T07:50:06.416Z,101852.34
2022-12-25T07:52:43.041Z,101863.31
2022-12-25T07:55:13.701Z,101879.97
2022-12-25T07:57:43.811Z,101867.97
2022-12-25T08:00:14.557Z,101858.59
2022-12-25T08:02:45.107Z,101859.50
2022-12-25T08:05:15.562Z,101871.81
2022-12-25T08:07:45.711Z,101877.09
2022-12-25T08:10:15.858Z,101873.72
2022-12-25T08:12:46.026Z,101876.34
2022-12-25T08:15:16.272Z,101873.72
2022-12-25T08:17:46.434Z,101884.13
2022-12-25T08:20:16.662Z,101890.16
2022-12-25T08:22:46.880Z,101899.63
2022-12-25T08:25:17.228Z,101895.44
2022-12-25T08:27:47.403Z,101904.91
2022-12-25T08:30:17.928Z,101899.75
2022-12-25T08:32:48.329Z,101905.13
2022-12-25T08:35:18.638Z,101908.72
2022-12-25T08:37:48.816Z,101904.38
2022-12-25T08:40:20.259Z,101911.41
2022-12-25T08:42:50.454Z,101906.34
2022-12-25T08:45:20.726Z,101915.81
2022-12-25T08:47:55.656Z,101908.31
2022-12-25T08:50:26.303Z,101904.00
2022-12-25T08:52:56.479Z,101909.38
2022-12-25T08:55:26.864Z,101910.34
2022-12-25T08:57:57.046Z,101909.59
2022-12-25T09:00:27.340Z,101913.09
2022-12-25T09:02:57.568Z,101906.44
2022-12-25T09:05:27.914Z,101907.38
2022-12-25T09:07:58.193Z,101910.06
2022-12-25T09:10:28.350Z,101913.69
2022-12-25T09:12:58.466Z,101911.16
2022-12-25T09:15:28.645Z,101898.38
2022-12-25T09:17:58.764Z,101905.47
2022-12-25T09:20:28.952Z,101909.94
2022-12-25T09:22:59.289Z,101907.44
2022-12-25T09:25:29.487Z,101914.41
2022-12-25T09:27:59.634Z,101918.66
2022-12-25T09:30:29.818Z,101915.28
2022-12-25T09:33:00.096Z,101912.78
2022-12-25T09:35:30.328Z,101930.91
2022-12-25T09:38:00.506Z,101920.63
2022-12-25T09:40:32.620Z,101925.09
2022-12-25T09:43:04.157Z,101929.44
2022-12-25T09:45:38.878Z,101929.56
2022-12-25T09:48:15.040Z,101932.22
2022-12-25T09:51:03.248Z,101927.31
2022-12-25T09:53:44.504Z,101935.38
2022-12-25T09:56:19.351Z,101928.53
2022-12-25T09:58:49.442Z,101942.47
2022-12-25T10:01:53.247Z,101918.16
2022-12-25T10:04:41.752Z,101931.38
2022-12-25T10:07:36.212Z,101930.41
2022-12-25T10:10:32.822Z,101929.47
2022-12-25T10:13:14.560Z,101922.69
2022-12-25T10:15:47.450Z,101910.44
2022-12-25T10:18:44.823Z,101911.19
2022-12-25T10:21:18.510Z,101905.97
2022-12-25T10:24:04.848Z,101907.53
2022-12-25T10:26:35.695Z,101901.53
2022-12-25T10:29:17.365Z,101897.34
2022-12-25T10:31:50.034Z,101899.16
2022-12-25T10:34:20.613Z,101892.22
2022-12-25T10:36:51.027Z,101891.47
2022-12-25T10:39:24.446Z,101897.72
2022-12-25T10:42:19.548Z,101904.59
2022-12-25T10:44:57.987Z,101909.75
2022-12-25T10:47:39.682Z,101908.94
2022-12-25T10:50:17.534Z,101914.91
2022-12-25T10:53:01.520Z,101908.69
2022-12-25T10:55:33.377Z,101901.72
2022-12-25T10:58:03.560Z,101890.78
2022-12-25T11:00:34.064Z,101908.16
2022-12-25T11:03:04.619Z,101906.22
2022-12-25T11:05:36.349Z,101911.28
2022-12-25T11:08:21.369Z,101910.41
2022-12-25T11:10:57.764Z,101910.31
2022-12-25T11:13:30.448Z,101910.28
2022-12-25T11:16:06.106Z,101907.72
2022-12-25T11:18:50.378Z,101913.81
2022-12-25T11:21:24.870Z,101912.03
2022-12-25T11:24:07.119Z,101911.03
2022-12-25T11:26:48.489Z,101913.66
2022-12-25T11:29:51.411Z,101919.75
2022-12-25T11:32:29.671Z,101907.72
2022-12-25T11:35:02.727Z,101915.75
2022-12-25T11:37:46.377Z,101910.69
2022-12-25T11:40:24.402Z,101906.53
2022-12-25T11:43:18.645Z,101911.75
2022-12-25T11:45:54.126Z,101902.19
2022-12-25T11:48:34.425Z,101916.06
2022-12-25T11:51:06.442Z,101905.72
2022-12-25T11:53:41.352Z,101909.25
2022-12-25T11:56:14.457Z,101909.06
2022-12-25T11:58:49.523Z,101901.94
2022-12-25T12:01:25.576Z,101905.53
2022-12-25T12:03:56.515Z,101909.84
2022-12-25T12:06:26.784Z,101910.72
2022-12-25T12:09:09.418Z,101902.75
2022-12-25T12:11:48.431Z,101907.06
2022-12-25T12:14:45.957Z,101909.72
2022-12-25T12:17:18.528Z,101895.72
2022-12-25T12:19:48.855Z,101900.00
2022-12-25T12:22:26.917Z,101904.31
2022-12-25T12:25:04.805Z,101900.78
2022-12-25T12:27:38.096Z,101902.56
2022-12-25T12:30:24.507Z,101907.72
2022-12-25T12:33:01.514Z,101905.13
2022-12-25T12:35:33.569Z,101900.00
2022-12-25T12:38:17.450Z,101896.47
2022-12-25T12:40:55.412Z,101889.63
2022-12-25T12:43:43.359Z,101889.81
2022-12-25T12:46:48.741Z,101888.13
2022-12-25T12:49:35.123Z,101889.91
2022-12-25T12:52:31.064Z,101897.63
2022-12-25T12:55:13.271Z,101895.91
2022-12-25T12:57:45.253Z,101893.22
2022-12-25T13:00:19.881Z,101907.00
2022-12-25T13:03:14.852Z,101907.06
2022-12-25T13:05:55.750Z,101912.31
2022-12-25T13:08:39.767Z,101911.44
2022-12-25T13:11:21.613Z,101899.25
2022-12-25T13:13:54.405Z,101911.22
2022-12-25T13:16:27.553Z,101918.19
2022-12-25T13:18:58.208Z,101921.53
2022-12-25T13:21:29.875Z,101924.13
2022-12-25T13:24:02.739Z,101917.16
2022-12-25T13:26:33.286Z,101912.91
2022-12-25T13:29:11.354Z,101914.69
2022-12-25T13:31:42.346Z,101906.00
2022-12-25T13:34:21.392Z,101909.34
2022-12-25T13:36:51.660Z,101903.78
2022-12-25T13:39:25.200Z,101912.50
2022-12-25T13:42:09.768Z,101904.66
2022-12-25T13:44:40.158Z,101908.94
2022-12-25T13:47:31.378Z,101917.53
2022-12-25T13:50:17.257Z,101914.81
2022-12-25T13:52:47.586Z,101913.06
2022-12-25T13:55:24.702Z,101916.66
2022-12-25T13:57:56.276Z,101907.34
2022-12-25T14:00:39.572Z,101899.59
2022-12-25T14:03:19.726Z,101904.75
2022-12-25T14:06:00.855Z,101897.75
2022-12-25T14:08:34.001Z,101896.06
2022-12-25T14:11:06.395Z,101902.16
2022-12-25T14:13:41.045Z,101905.63
2022-12-25T14:16:12.726Z,101913.16
2022-12-25T14:18:56.124Z,101924.41
2022-12-25T14:21:35.196Z,101919.81
2022-12-25T14:24:13.722Z,101934.69
2022-12-25T14:26:44.540Z,101941.63
2022-12-25T14:29:23.659Z,101936.41
2022-12-25T14:31:59.012Z,101945.00
2022-12-25T14:34:30.689Z,101952.00
2022-12-25T14:37:03.618Z,101931.81
2022-12-25T14:39:38.583Z,101950.22
2022-12-25T14:42:20.139Z,101953.63
2022-12-25T14:45:03.512Z,101956.22
2022-12-25T14:47:50.091Z,101955.34
2022-12-25T14:50:37.480Z,101958.75
2022-12-25T14:53:19.885Z,101949.25
2022-12-25T14:55:53.437Z,101948.38
2022-12-25T14:58:28.044Z,101951.09
2022-12-25T15:01:04.689Z,101945.06
2022-12-25T15:03:38.070Z,101950.34
2022-12-25T15:06:20.073Z,101946.88
2022-12-25T15:08:59.031Z,101941.75
2022-12-25T15:11:30.144Z,101940.00
2022-12-25T15:14:00.830Z,101939.06
2022-12-25T15:16:42.467Z,101942.50
2022-12-25T15:19:23.492Z,101944.19
2022-12-25T15:21:57.207Z,101944.03
2022-12-25T15:24:27.324Z,101926.66
2022-12-25T15:27:00.465Z,101939.91
2022-12-25T15:30:09.260Z,101921.84
2022-12-25T15:32:24.700Z,101924.50
2022-12-25T15:34:54.824Z,101922.78
2022-12-25T15:37:24.975Z,101922.78
2022-12-25T15:39:57.425Z,101909.94
2022-12-25T15:42:27.742Z,101909.06
2022-12-25T15:44:58.137Z,101909.88
2022-12-25T15:47:28.291Z,101915.06
2022-12-25T15:49:58.515Z,101906.22
2022-12-25T15:52:28.604Z,101923.75
2022-12-25T15:54:58.743Z,101929.75
2022-12-25T15:57:28.928Z,101932.41
2022-12-25T15:59:59.686Z,101933.28
2022-12-25T16:02:30.417Z,101929.84
2022-12-25T16:05:05.440Z,101938.59
2022-12-25T16:07:39.415Z,101941.16
2022-12-25T16:10:18.767Z,101934.31
2022-12-25T16:12:48.951Z,101940.31
2022-12-25T16:15:19.181Z,101916.91
2022-12-25T16:17:49.271Z,101921.44
2022-12-25T16:20:19.485Z,101913.72
2022-12-25T16:22:49.834Z,101921.53
2022-12-25T16:25:20.475Z,101921.53
2022-12-25T16:27:50.686Z,101923.94
2022-12-25T16:30:21.071Z,101926.59
2022-12-25T16:32:51.933Z,101930.22
2022-12-25T16:35:22.127Z,101923.34
2022-12-25T16:37:52.318Z,101873.28
2022-12-25T16:40:22.654Z,101925.09
2022-12-25T16:42:53.000Z,101924.28
2022-12-25T16:45:23.402Z,101915.75
2022-12-25T16:47:53.589Z,101905.44
2022-12-25T16:50:23.961Z,101894.28
2022-12-25T16:52:54.227Z,101894.41
2022-12-25T16:55:29.654Z,101891.03
2022-12-25T16:58:01.021Z,101881.63
2022-12-25T17:00:31.222Z,101888.50
2022-12-25T17:03:01.895Z,101895.47
2022-12-25T17:05:33.614Z,101903.28
2022-12-25T17:08:03.961Z,101897.25
2022-12-25T17:10:34.153Z,101895.63
2022-12-25T17:13:04.276Z,101890.41
2022-12-25T17:15:34.445Z,101884.25
2022-12-25T17:18:04.562Z,101888.03
2022-12-25T17:20:36.233Z,101888.97
2022-12-25T17:23:06.344Z,101878.50
2022-12-25T17:25:36.973Z,101895.25
2022-12-25T17:28:07.076Z,101893.47
2022-12-25T17:30:37.216Z,101892.59
2022-12-25T17:33:07.310Z,101882.28
2022-12-25T17:35:37.715Z,101885.84
2022-12-25T17:38:07.869Z,101879.69
2022-12-25T17:40:37.999Z,101882.28
2022-12-25T17:43:08.097Z,101884.88
2022-12-25T17:45:38.214Z,101878.13
2022-12-25T17:48:08.351Z,101886.78
2022-12-25T17:50:41.456Z,101871.25
2022-12-25T17:53:12.065Z,101880.81
2022-12-25T17:55:42.418Z,101872.84
2022-12-25T17:58:12.607Z,101882.50
2022-12-25T18:00:42.724Z,101884.31
2022-12-25T18:03:12.998Z,101888.69
2022-12-25T18:05:43.391Z,101882.69
2022-12-25T18:08:14.163Z,101876.69
2022-12-25T18:10:44.726Z,101874.19
2022-12-25T18:13:14.866Z,101856.66
2022-12-25T18:15:44.988Z,101875.84
2022-12-25T18:18:15.507Z,101868.88
2022-12-25T18:20:45.693Z,101865.50
2022-12-25T18:23:15.897Z,101853.50
2022-12-25T18:25:46.090Z,101856.16
2022-12-25T18:28:17.004Z,101860.47
2022-12-25T18:30:47.792Z,101861.41
2022-12-25T18:33:18.015Z,101857.09
2022-12-25T18:35:48.236Z,101854.53
2022-12-25T18:38:18.446Z,101838.72
2022-12-25T18:40:48.780Z,101854.44
2022-12-25T18:43:19.187Z,101847.59
2022-12-25T18:46:00.499Z,101832.31
2022-12-25T18:48:32.166Z,101816.53
2022-12-25T18:51:05.912Z,101831.34
2022-12-25T18:53:36.478Z,101843.59
2022-12-25T18:56:10.091Z,101837.50
2022-12-25T18:58:40.488Z,101822.03
2022-12-25T19:01:14.670Z,101815.09
2022-12-25T19:03:45.800Z,101825.66
2022-12-25T19:06:26.796Z,101826.56
2022-12-25T19:08:57.972Z,101812.75
2022-12-25T19:11:28.297Z,101816.31
2022-12-25T19:13:58.453Z,101818.84
2022-12-25T19:16:28.733Z,101795.44
2022-12-25T19:18:58.961Z,101807.78
2022-12-25T19:21:29.248Z,101805.25
2022-12-25T19:23:59.363Z,101799.19
2022-12-25T19:26:29.493Z,101801.00
2022-12-25T19:28:59.659Z,101801.06
2022-12-25T19:31:29.851Z,101782.84
2022-12-25T19:34:00.152Z,101790.72
2022-12-25T19:36:30.600Z,101789.81
2022-12-25T19:39:01.219Z,101781.28
2022-12-25T19:41:31.971Z,101787.41
2022-12-25T19:44:02.201Z,101778.78
2022-12-25T19:46:35.099Z,101782.22
2022-12-25T19:49:05.370Z,101771.09
2022-12-25T19:51:41.167Z,101760.56
2022-12-25T19:54:16.668Z,101779.00
2022-12-25T19:56:47.860Z,101741.72
2022-12-25T19:59:18.157Z,101758.28
2022-12-25T20:01:48.526Z,101776.41
2022-12-25T20:04:18.976Z,101783.38
2022-12-25T20:06:49.137Z,101775.63
2022-12-25T20:09:21.487Z,101780.06
2022-12-25T20:11:52.092Z,101768.88
2022-12-25T20:14:22.344Z,101767.19
2022-12-25T20:16:52.460Z,101762.75
2022-12-25T20:19:22.589Z,101770.69
2022-12-25T20:21:54.340Z,101770.69
2022-12-25T20:24:25.545Z,101768.19
2022-12-25T20:26:59.252Z,101756.00
2022-12-25T20:29:29.783Z,101762.94
2022-12-25T20:31:59.995Z,101721.81
2022-12-25T20:34:30.248Z,101751.91
2022-12-25T20:37:00.396Z,101753.66
2022-12-25T20:39:30.524Z,101754.59
2022-12-25T20:42:00.614Z,101747.75
2022-12-25T20:44:30.758Z,101745.16
2022-12-25T20:47:01.320Z,101737.50
2022-12-25T20:49:32.872Z,101731.50
2022-12-25T20:52:05.684Z,101738.44
2022-12-25T20:54:36.240Z,101734.00
2022-12-25T20:57:06.499Z,101730.59
2022-12-25T20:59:37.891Z,101729.00
2022-12-25T21:02:10.455Z,101706.38
2022-12-25T21:05:00.522Z,101716.91
2022-12-25T21:07:30.961Z,101710.88
2022-12-25T21:10:01.143Z,101705.72
2022-12-25T21:12:31.241Z,101698.75
2022-12-25T21:15:02.175Z,101693.41
2022-12-25T21:17:32.338Z,101689.72
2022-12-25T21:20:02.518Z,101696.56
2022-12-25T21:22:33.376Z,101690.56
2022-12-25T21:25:03.928Z,101671.53
2022-12-25T21:27:33.988Z,101663.09
2022-12-25T21:30:14.239Z,101667.47
2022-12-25T21:33:04.503Z,101657.19
2022-12-25T21:35:37.619Z,101651.19
2022-12-25T21:38:07.906Z,101634.94
2022-12-25T21:40:38.593Z,101641.88
2022-12-25T21:43:12.104Z,101633.22
2022-12-25T21:45:42.324Z,101636.06
2022-12-25T21:48:13.482Z,101630.88
2022-12-25T21:51:18.772Z,101632.50
2022-12-25T21:53:49.359Z,101636.94
2022-12-25T21:56:19.570Z,101635.34
2022-12-25T21:58:49.710Z,101624.19
2022-12-25T22:01:19.893Z,101623.41
2022-12-25T22:03:50.185Z,101619.91
2022-12-25T22:06:38.808Z,101613.81
2022-12-25T22:09:09.372Z,101620.75
2022-12-25T22:11:58.366Z,101608.72
2022-12-25T22:14:51.404Z,101601.78
2022-12-25T22:17:57.236Z,101596.66
2022-12-25T22:20:38.711Z,101587.91
2022-12-25T22:23:08.771Z,101575.00
2022-12-25T22:25:38.941Z,101567.28
2022-12-25T22:28:09.436Z,101558.78
2022-12-25T22:30:44.515Z,101562.19
2022-12-25T22:33:14.829Z,101557.06
2022-12-25T22:35:44.971Z,101559.72
2022-12-25T22:38:15.118Z,101558.78
2022-12-25T22:40:45.287Z,101552.72
2022-12-25T22:43:15.411Z,101544.97
2022-12-25T22:45:45.581Z,101539.75
2022-12-25T22:48:15.736Z,101551.91
2022-12-25T22:50:45.881Z,101537.25
2022-12-25T22:53:16.090Z,101533.81
2022-12-25T22:55:49.597Z,101520.06
2022-12-25T22:58:19.735Z,101515.69
2022-12-25T23:00:49.870Z,101504.47
2022-12-25T23:03:20.168Z,101482.72
2022-12-25T23:05:54.961Z,101492.38
2022-12-25T23:08:25.389Z,101486.44
2022-12-25T23:10:55.519Z,101490.75
2022-12-25T23:13:44.270Z,101488.22
2022-12-25T23:16:15.720Z,101483.03
2022-12-25T23:19:04.404Z,101481.22
2022-12-25T23:21:53.545Z,101489.00
2022-12-25T23:24:42.165Z,101483.78
2022-12-25T23:27:12.525Z,101492.38
2022-12-25T23:29:42.643Z,101475.84
2022-12-25T23:32:30.487Z,101482.94
2022-12-25T23:35:00.623Z,101489.66
2022-12-25T23:37:31.115Z,101494.16
2022-12-25T23:40:01.487Z,101480.41
2022-12-25T23:42:31.720Z,101478.72
2022-12-25T23:45:01.885Z,101469.13
2022-12-25T23:47:32.088Z,101465.00
2022-12-25T23:50:02.311Z,101469.28
2022-12-25T23:52:32.467Z,101442.44
2022-12-25T23:55:02.543Z,101443.63
2022-12-25T23:57:32.731Z,101440.94
